createdAt,value
2017-12-28T00:02:07.956Z,68.60
2017-12-28T00:04:33.959Z,69.20
2017-12-28T00:06:59.904Z,70.30
2017-12-28T00:09:25.882Z,70.60
2017-12-28T00:11:51.985Z,71.20
2017-12-28T00:14:17.916Z,71.30
2017-12-28T00:16:43.911Z,71.80
2017-12-28T00:19:09.867Z,71.50
2017-12-28T00:21:35.828Z,71.70
2017-12-28T00:24:02.541Z,71.70
2017-12-28T00:26:28.624Z,71.70
2017-12-28T00:28:54.595Z,71.70
2017-12-28T00:31:21.290Z,71.50
2017-12-28T00:33:47.388Z,71.50
2017-12-28T00:36:13.325Z,71.30
2017-12-28T00:38:39.262Z,71.60
2017-12-28T00:41:05.238Z,71.70
2017-12-28T00:43:31.191Z,71.90
2017-12-28T00:45:57.220Z,71.80
2017-12-28T00:48:23.164Z,72.20
2017-12-28T00:50:49.116Z,72.30
2017-12-28T00:53:15.848Z,72.50
2017-12-28T00:55:41.772Z,72.50
2017-12-28T00:58:07.739Z,72.60
2017-12-28T01:00:33.677Z,72.90
2017-12-28T01:02:59.645Z,73.10
2017-12-28T01:05:26.461Z,73.70
2017-12-28T01:07:52.411Z,73.80
2017-12-28T01:10:19.116Z,73.90
2017-12-28T01:12:45.039Z,73.90
2017-12-28T01:15:11.008Z,74.20
2017-12-28T01:17:36.939Z,74.30
2017-12-28T01:20:03.024Z,73.90
2017-12-28T01:22:29.014Z,73.90
2017-12-28T01:24:54.965Z,74.10
2017-12-28T01:27:21.064Z,74.40
2017-12-28T01:29:47.039Z,74.60
2017-12-28T01:32:13.743Z,74.20
2017-12-28T01:34:39.684Z,74.30
2017-12-28T01:37:06.503Z,74.50
2017-12-28T01:39:32.470Z,74.40
2017-12-28T01:41:58.447Z,74.70
2017-12-28T01:44:24.387Z,74.70
2017-12-28T01:46:50.332Z,74.70
2017-12-28T01:49:16.299Z,74.80
2017-12-28T01:51:42.408Z,74.80
2017-12-28T01:54:09.263Z,74.60
2017-12-28T01:56:35.203Z,74.60
2017-12-28T01:59:01.180Z,74.30
2017-12-28T02:01:27.124Z,74.00
2017-12-28T02:03:53.076Z,74.20
2017-12-28T02:06:19.160Z,74.20
2017-12-28T02:08:45.102Z,74.30
2017-12-28T02:11:11.105Z,74.60
2017-12-28T02:13:37.092Z,74.60
2017-12-28T02:16:03.779Z,75.20
2017-12-28T02:18:29.751Z,75.20
2017-12-28T02:20:55.728Z,75.30
2017-12-28T02:23:21.668Z,75.20
2017-12-28T02:25:47.753Z,75.10
2017-12-28T02:28:13.826Z,75.20
2017-12-28T02:30:39.852Z,75.10
2017-12-28T02:33:05.788Z,75.00
2017-12-28T02:35:32.507Z,75.00
2017-12-28T02:37:59.212Z,75.20
2017-12-28T02:40:25.156Z,75.20
2017-12-28T02:42:51.257Z,75.20
2017-12-28T02:45:17.190Z,75.40
2017-12-28T02:47:43.128Z,75.20
2017-12-28T02:50:09.220Z,75.10
2017-12-28T02:52:35.175Z,74.80
2017-12-28T02:55:01.127Z,74.90
2017-12-28T02:57:27.084Z,74.70
2017-12-28T02:59:53.078Z,74.80
2017-12-28T03:02:19.771Z,75.10
2017-12-28T03:04:45.699Z,75.00
2017-12-28T03:07:11.656Z,75.30
2017-12-28T03:09:38.328Z,75.60
2017-12-28T03:12:04.256Z,75.60
2017-12-28T03:14:30.219Z,75.40
2017-12-28T03:16:56.172Z,75.60
2017-12-28T03:19:22.243Z,76.30
2017-12-28T03:21:48.172Z,75.90
2017-12-28T03:24:14.144Z,76.20
2017-12-28T03:26:40.216Z,76.50
2017-12-28T03:29:06.139Z,76.90
2017-12-28T03:31:32.127Z,77.40
2017-12-28T03:33:58.072Z,77.40
2017-12-28T03:36:24.173Z,77.90
2017-12-28T03:38:50.124Z,78.00
2017-12-28T03:41:16.066Z,78.10
2017-12-28T03:43:42.802Z,78.20
2017-12-28T03:46:08.728Z,78.20
2017-12-28T03:48:34.661Z,78.50
2017-12-28T03:51:01.376Z,78.70
2017-12-28T03:53:27.309Z,78.70
2017-12-28T03:55:53.252Z,78.50
2017-12-28T03:58:19.395Z,79.40
2017-12-28T04:00:45.352Z,80.00
2017-12-28T04:03:11.284Z,80.10
2017-12-28T04:05:37.263Z,80.50
2017-12-28T04:08:03.224Z,80.90
2017-12-28T04:10:29.179Z,81.40
2017-12-28T04:12:56.059Z,82.50
2017-12-28T04:15:21.995Z,82.50
2017-12-28T04:17:48.051Z,83.00
2017-12-28T04:20:14.115Z,83.20
2017-12-28T04:22:40.063Z,83.40
2017-12-28T04:25:06.004Z,83.40
2017-12-28T04:27:31.940Z,83.60
2017-12-28T04:29:57.903Z,84.00
2017-12-28T04:32:23.840Z,85.20
2017-12-28T04:34:49.770Z,84.90
2017-12-28T04:37:15.923Z,85.00
2017-12-28T04:39:41.852Z,85.40
2017-12-28T04:42:07.788Z,85.20
2017-12-28T04:44:34.520Z,85.70
2017-12-28T04:47:00.472Z,85.80
2017-12-28T04:49:26.399Z,86.00
2017-12-28T04:51:52.525Z,86.00
2017-12-28T04:54:18.503Z,86.20
2017-12-28T04:56:44.641Z,86.00
2017-12-28T04:59:11.332Z,86.60
2017-12-28T05:01:37.306Z,86.60
2017-12-28T05:04:03.988Z,86.30
2017-12-28T05:06:30.135Z,86.30
2017-12-28T05:08:56.064Z,86.50
2017-12-28T05:11:22.009Z,86.90
2017-12-28T05:13:48.805Z,87.20
2017-12-28T05:16:14.739Z,87.20
2017-12-28T05:18:40.704Z,87.10
2017-12-28T05:21:07.388Z,87.30
2017-12-28T05:23:33.368Z,87.30
2017-12-28T05:26:00.038Z,86.60
2017-12-28T05:28:25.959Z,86.70
2017-12-28T05:30:52.103Z,86.50
2017-12-28T05:33:18.036Z,86.90
2017-12-28T05:35:43.983Z,87.20
2017-12-28T05:38:09.947Z,87.40
2017-12-28T05:40:35.882Z,87.40
2017-12-28T05:43:02.033Z,87.30
2017-12-28T05:45:27.957Z,87.00
2017-12-28T05:47:53.900Z,87.40
2017-12-28T05:50:20.744Z,86.90
2017-12-28T05:52:47.427Z,87.00
2017-12-28T05:55:13.407Z,87.00
2017-12-28T05:57:40.231Z,87.60
2017-12-28T06:00:06.184Z,87.00
2017-12-28T06:02:32.176Z,87.30
2017-12-28T06:04:58.859Z,88.10
2017-12-28T06:07:24.939Z,87.80
2017-12-28T06:09:50.866Z,87.50
2017-12-28T06:12:17.592Z,87.60
2017-12-28T06:14:43.538Z,87.60
2017-12-28T06:17:10.208Z,88.30
2017-12-28T06:19:36.923Z,88.70
2017-12-28T06:22:02.859Z,88.70
2017-12-28T06:24:28.784Z,88.80
2017-12-28T06:26:55.019Z,88.90
2017-12-28T06:29:20.954Z,88.70
2017-12-28T06:31:46.931Z,88.80
2017-12-28T06:34:13.611Z,88.60
2017-12-28T06:36:39.544Z,88.70
2017-12-28T06:39:05.643Z,88.90
2017-12-28T06:41:31.580Z,88.90
2017-12-28T06:43:57.585Z,89.20
2017-12-28T06:46:23.529Z,89.40
2017-12-28T06:48:49.511Z,89.60
2017-12-28T06:51:15.471Z,89.90
2017-12-28T06:53:41.415Z,90.00
2017-12-28T06:56:07.522Z,90.10
2017-12-28T06:58:33.588Z,90.10
2017-12-28T07:01:00.264Z,90.10
2017-12-28T07:03:27.080Z,90.10
2017-12-28T07:05:53.755Z,90.00
2017-12-28T07:08:19.715Z,90.00
2017-12-28T07:10:45.640Z,90.10
2017-12-28T07:13:12.412Z,90.30
2017-12-28T07:15:38.360Z,90.30
2017-12-28T07:18:04.324Z,90.20
2017-12-28T07:20:30.286Z,90.30
2017-12-28T07:22:56.216Z,90.30
2017-12-28T07:25:22.176Z,90.40
2017-12-28T07:27:48.117Z,90.40
2017-12-28T07:30:14.942Z,90.50
2017-12-28T07:32:40.896Z,90.50
2017-12-28T07:35:07.573Z,90.50
2017-12-28T07:37:33.684Z,90.50
2017-12-28T07:40:00.368Z,90.50
2017-12-28T07:42:26.351Z,90.60
2017-12-28T07:44:52.299Z,90.50
2017-12-28T07:47:18.251Z,90.60
2017-12-28T07:49:45.122Z,90.40
2017-12-28T07:52:11.059Z,90.40
2017-12-28T07:54:37.034Z,90.30
2017-12-28T07:57:03.960Z,90.70
2017-12-28T07:59:29.903Z,90.60
2017-12-28T08:01:56.621Z,90.50
2017-12-28T08:04:22.547Z,90.50
2017-12-28T08:06:48.475Z,90.40
2017-12-28T08:09:14.567Z,90.40
2017-12-28T08:11:40.505Z,90.60
2017-12-28T08:14:06.455Z,90.40
2017-12-28T08:16:33.227Z,90.50
2017-12-28T08:18:59.167Z,90.40
2017-12-28T08:21:25.139Z,90.40
2017-12-28T08:23:51.822Z,90.30
2017-12-28T08:26:17.968Z,90.30
2017-12-28T08:28:43.982Z,90.30
2017-12-28T08:31:09.933Z,90.30
2017-12-28T08:33:35.919Z,90.30
2017-12-28T08:36:01.851Z,90.30
2017-12-28T08:38:27.809Z,90.10
2017-12-28T08:40:54.512Z,89.80
2017-12-28T08:43:20.626Z,89.70
2017-12-28T08:45:46.561Z,90.00
2017-12-28T08:48:12.505Z,89.30
2017-12-28T08:50:38.479Z,89.30
2017-12-28T08:53:04.422Z,89.20
2017-12-28T08:55:30.427Z,89.20
2017-12-28T08:57:56.567Z,89.20
2017-12-28T09:00:22.515Z,89.10
2017-12-28T09:02:48.461Z,88.90
2017-12-28T09:05:15.338Z,88.90
2017-12-28T09:07:41.276Z,88.90
2017-12-28T09:10:07.221Z,88.50
2017-12-28T09:12:33.240Z,88.50
2017-12-28T09:14:59.339Z,88.20
2017-12-28T09:17:25.296Z,88.20
2017-12-28T09:19:51.256Z,88.50
2017-12-28T09:22:17.220Z,87.70
2017-12-28T09:24:43.252Z,87.80
2017-12-28T09:27:09.186Z,87.80
2017-12-28T09:29:35.877Z,88.10
2017-12-28T09:32:01.856Z,88.20
2017-12-28T09:34:27.793Z,88.10
2017-12-28T09:36:53.740Z,87.50
2017-12-28T09:39:19.739Z,87.10
2017-12-28T09:41:46.424Z,87.40
2017-12-28T09:44:12.535Z,87.40
2017-12-28T09:46:38.508Z,87.20
2017-12-28T09:49:04.457Z,87.80
2017-12-28T09:51:30.428Z,87.50
2017-12-28T09:53:56.368Z,87.40
2017-12-28T09:56:22.327Z,86.90
2017-12-28T09:58:48.282Z,86.50
2017-12-28T10:01:14.381Z,86.20
2017-12-28T10:03:40.340Z,86.50
2017-12-28T10:06:06.272Z,86.30
2017-12-28T10:08:32.420Z,86.30
2017-12-28T10:10:59.123Z,86.00
2017-12-28T10:13:25.074Z,85.90
2017-12-28T10:15:51.796Z,85.80
2017-12-28T10:18:17.786Z,85.80
2017-12-28T10:20:43.790Z,85.30
2017-12-28T10:23:09.727Z,85.30
2017-12-28T10:25:35.820Z,85.90
2017-12-28T10:28:02.661Z,85.30
2017-12-28T10:30:29.358Z,85.70
2017-12-28T10:32:55.337Z,85.70
2017-12-28T10:35:21.302Z,84.80
2017-12-28T10:37:47.384Z,85.60
2017-12-28T10:40:13.341Z,85.10
2017-12-28T10:42:39.297Z,85.40
2017-12-28T10:45:05.306Z,86.00
2017-12-28T10:47:31.259Z,85.70
2017-12-28T10:49:58.049Z,85.40
2017-12-28T10:52:24.038Z,85.50
2017-12-28T10:54:50.004Z,84.70
2017-12-28T10:57:16.255Z,84.70
2017-12-28T10:59:42.223Z,84.70
2017-12-28T11:02:08.238Z,84.50
2017-12-28T11:04:34.234Z,84.90
2017-12-28T11:07:01.019Z,85.00
2017-12-28T11:09:27.022Z,85.00
2017-12-28T11:11:52.982Z,85.00
2017-12-28T11:14:18.973Z,84.30
2017-12-28T11:16:44.912Z,83.40
2017-12-28T11:19:11.010Z,83.30
2017-12-28T11:21:36.967Z,83.80
2017-12-28T11:24:02.936Z,84.10
2017-12-28T11:26:29.794Z,84.10
2017-12-28T11:28:55.809Z,84.10
2017-12-28T11:31:21.769Z,83.10
2017-12-28T11:33:47.783Z,83.30
2017-12-28T11:36:13.963Z,83.00
2017-12-28T11:38:39.976Z,83.70
2017-12-28T11:41:06.032Z,83.60
2017-12-28T11:43:32.154Z,83.50
2017-12-28T11:45:58.193Z,83.80
2017-12-28T11:48:24.317Z,83.80
2017-12-28T11:50:50.429Z,84.30
2017-12-28T11:53:16.471Z,84.10
2017-12-28T11:55:42.661Z,84.10
2017-12-28T11:58:09.591Z,84.50
2017-12-28T12:00:35.613Z,84.40
2017-12-28T12:03:02.384Z,84.10
2017-12-28T12:05:29.127Z,83.20
2017-12-28T12:07:55.146Z,83.20
2017-12-28T12:10:21.177Z,83.00
2017-12-28T12:12:47.385Z,81.90
2017-12-28T12:15:14.241Z,81.50
2017-12-28T12:17:40.459Z,81.60
2017-12-28T12:20:06.584Z,82.20
2017-12-28T12:22:32.606Z,81.80
2017-12-28T12:24:59.303Z,81.40
2017-12-28T12:27:25.411Z,81.40
2017-12-28T12:29:51.356Z,81.50
2017-12-28T12:32:17.312Z,81.60
2017-12-28T12:34:44.160Z,81.40
2017-12-28T12:37:10.842Z,81.50
2017-12-28T12:39:36.815Z,81.50
2017-12-28T12:42:03.501Z,81.10
2017-12-28T12:44:29.512Z,81.10
2017-12-28T12:46:55.505Z,81.30
2017-12-28T12:51:51.052Z,82.20
2017-12-28T12:54:19.194Z,82.30
2017-12-28T12:56:47.400Z,82.80
2017-12-28T12:59:15.577Z,82.30
2017-12-28T13:01:43.707Z,82.20
2017-12-28T13:04:12.736Z,82.10
2017-12-28T13:06:40.893Z,82.10
2017-12-28T13:09:09.117Z,82.40
2017-12-28T13:11:38.007Z,81.80
2017-12-28T13:14:06.155Z,81.80
2017-12-28T13:16:34.346Z,82.00
2017-12-28T13:19:03.301Z,81.80
2017-12-28T13:21:31.478Z,81.80
2017-12-28T13:23:59.633Z,81.20
2017-12-28T13:26:27.822Z,81.40
2017-12-28T13:28:56.150Z,81.10
2017-12-28T13:31:24.289Z,80.90
2017-12-28T13:33:52.470Z,81.00
2017-12-28T13:36:20.658Z,81.90
2017-12-28T13:38:48.819Z,81.30
2017-12-28T13:41:17.098Z,81.20
2017-12-28T13:43:45.235Z,81.00
2017-12-28T13:46:13.424Z,81.10
2017-12-28T13:48:41.571Z,80.70
2017-12-28T13:51:09.752Z,80.30
2017-12-28T13:53:37.885Z,80.80
2017-12-28T13:56:06.029Z,81.30
2017-12-28T13:58:34.360Z,81.50
2017-12-28T14:01:02.509Z,81.80
2017-12-28T14:03:31.611Z,82.00
2017-12-28T14:05:59.782Z,82.10
2017-12-28T14:08:27.941Z,82.60
2017-12-28T14:10:56.878Z,82.30
2017-12-28T14:13:25.022Z,82.30
2017-12-28T14:15:53.194Z,82.60
2017-12-28T14:18:22.087Z,82.90
2017-12-28T14:20:50.384Z,83.00
2017-12-28T14:23:18.542Z,83.40
2017-12-28T14:25:46.784Z,84.10
2017-12-28T14:28:14.956Z,84.60
2017-12-28T14:30:43.882Z,85.70
2017-12-28T14:33:12.012Z,84.90
2017-12-28T14:35:40.168Z,85.30
2017-12-28T14:38:08.327Z,85.60
2017-12-28T14:40:36.599Z,85.10
2017-12-28T14:43:04.746Z,85.70
2017-12-28T14:45:32.883Z,85.40
2017-12-28T14:48:01.051Z,85.60
2017-12-28T14:50:29.201Z,85.50
2017-12-28T14:52:57.550Z,85.80
2017-12-28T14:55:25.710Z,85.90
2017-12-28T14:57:54.634Z,85.60
2017-12-28T15:00:22.852Z,85.60
2017-12-28T15:02:51.021Z,85.20
2017-12-28T15:05:19.981Z,85.30
2017-12-28T15:07:48.218Z,85.20
2017-12-28T15:10:17.204Z,85.00
2017-12-28T15:12:46.167Z,84.90
2017-12-28T15:15:14.422Z,84.90
2017-12-28T15:17:42.618Z,84.80
2017-12-28T15:20:10.854Z,84.30
2017-12-28T15:22:39.028Z,83.70
2017-12-28T15:25:07.142Z,83.90
2017-12-28T15:27:35.430Z,83.60
2017-12-28T15:30:04.364Z,83.10
2017-12-28T15:32:32.505Z,83.10
2017-12-28T15:35:00.656Z,83.00
2017-12-28T15:37:28.975Z,82.30
2017-12-28T15:39:57.111Z,81.70
2017-12-28T15:42:33.077Z,80.70
2017-12-28T15:45:10.002Z,80.70
2017-12-28T15:47:45.928Z,80.70
2017-12-28T15:50:22.123Z,80.90
2017-12-28T15:52:58.036Z,80.90
2017-12-28T15:55:27.100Z,81.20
2017-12-28T15:57:56.546Z,81.30
2017-12-28T16:00:25.433Z,81.30
2017-12-28T16:02:53.600Z,81.30
2017-12-28T16:05:22.491Z,81.10
2017-12-28T16:07:50.757Z,81.10
2017-12-28T16:10:19.676Z,80.60
2017-12-28T16:12:47.868Z,80.60
2017-12-28T16:15:15.997Z,80.10
2017-12-28T16:17:44.908Z,79.80
2017-12-28T16:20:13.086Z,80.50
2017-12-28T16:22:41.206Z,79.30
2017-12-28T16:25:09.527Z,78.90
2017-12-28T16:27:37.703Z,78.80
2017-12-28T16:30:05.835Z,78.70
2017-12-28T16:32:33.991Z,77.80
2017-12-28T16:35:02.133Z,77.80
2017-12-28T16:37:30.361Z,77.60
2017-12-28T16:39:58.487Z,76.70
2017-12-28T16:42:26.788Z,77.20
2017-12-28T16:44:54.952Z,76.70
2017-12-28T16:47:23.080Z,76.00
2017-12-28T16:49:52.001Z,75.80
2017-12-28T16:52:20.127Z,75.70
2017-12-28T16:54:49.079Z,75.10
2017-12-28T16:57:17.201Z,74.90
2017-12-28T16:59:46.239Z,74.00
2017-12-28T17:08:20.778Z,74.20
2017-12-28T17:10:48.904Z,74.90
2017-12-28T17:13:17.076Z,74.40
2017-12-28T17:15:45.212Z,74.30
2017-12-28T17:18:13.360Z,74.20
2017-12-28T17:20:42.309Z,74.10
2017-12-28T17:23:10.476Z,74.10
2017-12-28T17:25:38.628Z,74.00
2017-12-28T17:28:06.812Z,74.20
2017-12-28T17:30:34.976Z,73.60
2017-12-28T17:33:03.109Z,73.00
2017-12-28T17:35:32.152Z,73.30
2017-12-28T17:38:00.320Z,73.30
2017-12-28T17:40:28.452Z,73.70
2017-12-28T17:42:57.384Z,73.80
2017-12-28T17:45:25.509Z,73.80
2017-12-28T17:47:54.443Z,74.00
2017-12-28T17:50:22.578Z,74.00
2017-12-28T17:52:51.491Z,74.30
2017-12-28T17:55:19.793Z,74.30
2017-12-28T17:57:47.972Z,74.10
2017-12-28T18:00:16.151Z,74.10
2017-12-28T18:02:44.280Z,73.50
2017-12-28T18:05:13.206Z,74.00
2017-12-28T18:07:41.361Z,74.00
2017-12-28T18:10:09.652Z,74.40
2017-12-28T18:12:37.808Z,74.80
2017-12-28T18:15:05.977Z,74.80
2017-12-28T18:17:34.104Z,75.30
2017-12-28T18:20:02.880Z,75.70
2017-12-28T18:22:31.054Z,76.20
2017-12-28T18:24:59.186Z,76.10
2017-12-28T18:27:27.529Z,76.40
2017-12-28T18:29:55.671Z,76.80
2017-12-28T18:32:23.840Z,76.90
2017-12-28T18:34:52.002Z,77.10
2017-12-28T18:37:20.181Z,77.20
2017-12-28T18:39:48.362Z,77.30
2017-12-28T18:42:16.497Z,77.40
2017-12-28T18:45:10.746Z,78.30
2017-12-28T18:47:44.076Z,77.90
2017-12-28T18:50:12.272Z,77.90
2017-12-28T18:52:40.415Z,78.00
2017-12-28T18:55:09.320Z,78.10
2017-12-28T18:57:39.610Z,78.20
2017-12-28T19:00:07.904Z,77.90
2017-12-28T19:02:36.851Z,77.70
2017-12-28T19:05:05.005Z,77.70
2017-12-28T19:07:33.157Z,77.40
2017-12-28T19:10:01.427Z,77.10
2017-12-28T19:12:30.338Z,76.80
2017-12-28T19:14:58.494Z,76.80
2017-12-28T19:17:27.016Z,76.70
2017-12-28T19:19:55.280Z,76.60
2017-12-28T19:22:23.469Z,76.30
2017-12-28T19:24:51.660Z,76.30
2017-12-28T19:27:19.848Z,76.00
2017-12-28T19:29:48.012Z,76.20
2017-12-28T19:32:16.164Z,75.90
2017-12-28T19:34:44.500Z,76.10
2017-12-28T19:37:12.686Z,75.90
2017-12-28T19:39:40.830Z,75.70
2017-12-28T19:42:09.807Z,76.10
2017-12-28T19:44:37.954Z,76.00
2017-12-28T19:47:06.059Z,75.90
2017-12-28T19:49:35.003Z,75.90
2017-12-28T19:52:03.136Z,76.00
2017-12-28T19:54:32.045Z,75.90
2017-12-28T19:57:00.356Z,75.90
2017-12-28T19:59:28.525Z,76.10
2017-12-28T20:01:56.672Z,76.20
2017-12-28T20:04:24.821Z,76.40
2017-12-28T20:06:53.774Z,76.40
2017-12-28T20:09:21.902Z,76.40
2017-12-28T20:11:50.064Z,76.30
2017-12-28T20:14:19.046Z,75.50
2017-12-28T20:16:47.152Z,75.50
2017-12-28T20:19:15.296Z,75.60
2017-12-28T20:21:44.270Z,75.60
2017-12-28T20:24:12.395Z,75.60
2017-12-28T20:26:40.530Z,75.60
2017-12-28T20:29:09.465Z,75.30
2017-12-28T20:31:37.613Z,75.30
2017-12-28T20:34:05.763Z,74.80
2017-12-28T20:36:34.048Z,74.90
2017-12-28T20:39:02.960Z,74.40
2017-12-28T20:41:31.131Z,74.30
2017-12-28T20:43:59.282Z,74.10
2017-12-28T20:46:27.412Z,74.20
2017-12-28T20:48:55.720Z,74.00
2017-12-28T20:54:52.538Z,73.60
2017-12-28T20:57:20.676Z,73.50
2017-12-28T20:59:49.630Z,73.30
2017-12-28T21:02:17.788Z,73.30
2017-12-28T21:04:48.525Z,73.00
2017-12-28T21:07:16.705Z,73.00
2017-12-28T21:09:44.836Z,72.80
2017-12-28T21:12:12.994Z,72.40
2017-12-28T21:14:41.922Z,71.90
2017-12-28T21:17:10.071Z,71.90
2017-12-28T21:19:38.226Z,72.00
2017-12-28T21:22:06.502Z,72.40
2017-12-28T21:24:34.708Z,72.40
2017-12-28T21:27:02.889Z,72.20
2017-12-28T21:29:31.024Z,71.30
2017-12-28T21:31:59.975Z,71.30
2017-12-28T21:34:28.100Z,71.10
2017-12-28T21:36:56.271Z,71.20
2017-12-28T21:39:24.467Z,71.70
2017-12-28T21:41:52.605Z,70.20
2017-12-28T21:44:21.508Z,71.20
2017-12-28T21:46:50.560Z,70.40
2017-12-28T21:49:18.700Z,70.50
2017-12-28T21:51:46.888Z,70.40
2017-12-28T21:54:15.024Z,70.30
2017-12-28T21:56:44.107Z,70.20
2017-12-28T21:59:13.033Z,69.80
2017-12-28T22:01:41.212Z,69.70
2017-12-28T22:04:10.103Z,69.60
2017-12-28T22:06:38.247Z,69.60
2017-12-28T22:09:07.202Z,70.00
2017-12-28T22:11:35.346Z,69.90
2017-12-28T22:14:03.494Z,70.00
2017-12-28T22:16:31.982Z,70.60
2017-12-28T22:19:00.109Z,70.00
2017-12-28T22:21:28.362Z,69.70
2017-12-28T22:23:56.492Z,69.40
2017-12-28T22:26:24.657Z,69.40
2017-12-28T22:28:52.811Z,69.50
2017-12-28T22:31:20.976Z,69.60
2017-12-28T22:33:49.268Z,69.70
2017-12-28T22:36:18.167Z,70.30
2017-12-28T22:38:47.077Z,70.20
2017-12-28T22:41:15.240Z,70.20
2017-12-28T22:43:43.388Z,69.80
2017-12-28T22:46:11.544Z,69.90
2017-12-28T22:48:39.664Z,69.60
2017-12-28T22:51:07.976Z,69.40
2017-12-28T22:53:36.115Z,69.80
2017-12-28T22:56:04.283Z,70.10
2017-12-28T22:58:33.219Z,70.20
2017-12-28T23:01:01.344Z,70.20
2017-12-28T23:03:30.277Z,71.40
2017-12-28T23:05:58.419Z,71.50
2017-12-28T23:08:26.704Z,71.10
2017-12-28T23:10:54.858Z,70.90
2017-12-28T23:13:23.783Z,71.60
2017-12-28T23:15:51.915Z,71.60
2017-12-28T23:18:20.816Z,71.10
2017-12-28T23:20:48.979Z,71.10
2017-12-28T23:23:17.134Z,71.30
2017-12-28T23:25:45.265Z,71.40
2017-12-28T23:28:13.546Z,71.40
2017-12-28T23:30:41.672Z,71.00
2017-12-28T23:33:10.713Z,70.60
2017-12-28T23:35:38.843Z,70.60
2017-12-28T23:38:07.764Z,70.70
2017-12-28T23:40:35.924Z,70.70
2017-12-28T23:43:04.045Z,70.00
2017-12-28T23:45:32.373Z,69.10
2017-12-28T23:48:01.255Z,68.80
2017-12-28T23:50:30.159Z,69.10
2017-12-28T23:52:58.346Z,69.10
2017-12-28T23:55:26.484Z,69.60
2017-12-28T23:57:55.427Z,70.00
